Time;durP1;ratioP1;P1;durP2;ratioP2;P2;SDS_P1;SDS_P2;PMS_P1;PMS_P2;Temp;Humidity;BMP_temperature;BMP_pressure;BME280_temperature;BME280_humidity;BME280_pressure;Samples;Min_cycle;Max_cycle;Signal;HPM_P1;HPM_P2
2021/01/19 00:01:33;;;;;;;12.63;11.30;;;;;;;6.72;70.70;100987.78;5119045;28;20552;-67
2021/01/19 00:03:59;;;;;;;17.97;12.60;;;;;;;6.28;72.16;100989.00;5118584;28;20224;-66
2021/01/19 00:06:24;;;;;;;18.57;11.60;;;;;;;6.39;71.64;100980.75;5118784;28;20255;-67
2021/01/19 00:08:50;;;;;;;19.47;12.00;;;;;;;6.25;72.42;100987.19;5118964;28;20167;-67
2021/01/19 00:11:15;;;;;;;13.90;11.23;;;;;;;6.35;72.02;100976.31;5118428;28;20175;-68
2021/01/19 00:13:40;;;;;;;15.73;11.97;;;;;;;6.62;71.31;100977.97;5118435;28;20176;-67
2021/01/19 00:16:06;;;;;;;17.27;12.00;;;;;;;6.53;71.62;100982.88;5118866;28;20203;-67
2021/01/19 00:18:31;;;;;;;22.13;12.80;;;;;;;6.59;71.41;100975.28;5118531;28;20211;-69
2021/01/19 00:20:56;;;;;;;15.97;13.13;;;;;;;6.59;70.79;100975.28;5118300;28;20179;-69
2021/01/19 00:23:22;;;;;;;20.73;14.03;;;;;;;6.35;72.28;100965.94;5118831;28;20179;-69
2021/01/19 00:25:47;;;;;;;21.57;14.10;;;;;;;6.35;72.05;100965.06;5118365;28;20649;-69
2021/01/19 00:28:13;;;;;;;19.73;13.60;;;;;;;6.61;70.85;100967.56;5118223;28;20513;-68
2021/01/19 00:30:42;;;;;;;21.00;13.93;;;;;;;6.78;70.23;100960.25;5117617;28;20256;-69
2021/01/19 00:33:09;;;;;;;19.90;14.20;;;;;;;6.68;71.40;100970.34;5117563;28;20795;-69
2021/01/19 00:35:35;;;;;;;20.60;15.63;;;;;;;6.71;70.60;100970.47;5117871;28;20428;-69
2021/01/19 00:38:01;;;;;;;19.97;14.30;;;;;;;6.63;70.97;100973.66;5118629;28;20478;-69
2021/01/19 00:40:27;;;;;;;19.53;15.03;;;;;;;6.64;71.09;100967.66;5117359;28;20421;-68
2021/01/19 00:42:52;;;;;;;20.30;16.83;;;;;;;6.30;71.73;100964.06;5118130;28;20428;-70
2021/01/19 00:45:18;;;;;;;25.50;18.03;;;;;;;6.58;71.12;100964.03;5118497;28;20420;-70
2021/01/19 00:47:43;;;;;;;21.77;16.40;;;;;;;6.33;70.89;100965.03;5118191;28;20224;-70
2021/01/19 00:50:09;;;;;;;21.50;16.03;;;;;;;6.46;71.28;100960.22;5117922;28;20251;-70
2021/01/19 00:52:34;;;;;;;19.77;17.60;;;;;;;6.40;71.81;100950.56;5118265;28;20431;-70
2021/01/19 00:54:59;;;;;;;24.40;18.70;;;;;;;6.31;71.43;100947.69;5117965;28;20175;-70
2021/01/19 00:57:25;;;;;;;21.87;17.60;;;;;;;6.31;71.94;100938.19;5117849;28;20594;-70
2021/01/19 00:59:50;;;;;;;29.97;18.90;;;;;;;6.62;70.83;100933.06;5117928;28;20545;-69
2021/01/19 01:02:17;;;;;;;22.93;17.40;;;;;;;6.56;70.33;100928.56;5117931;28;20172;-70
2021/01/19 01:04:43;;;;;;;25.00;18.00;;;;;;;6.82;70.07;100926.72;5117671;28;20260;-69
2021/01/19 01:24:41;;;;;;;20.53;16.83;;;;;;;6.56;69.98;100905.25;5117465;28;20432;-69
2021/01/19 01:27:06;;;;;;;27.83;19.33;;;;;;;6.45;70.75;100904.94;5117848;28;20722;-70
2021/01/19 01:29:32;;;;;;;22.23;17.50;;;;;;;6.31;71.20;100904.53;5116818;28;20419;-68
2021/01/19 01:31:57;;;;;;;27.93;18.00;;;;;;;6.41;71.01;100897.91;5117635;28;20182;-70
2021/01/19 01:34:23;;;;;;;26.47;17.20;;;;;;;6.10;71.25;100890.94;5118015;28;20168;-70
2021/01/19 01:36:48;;;;;;;29.60;19.03;;;;;;;6.00;71.12;100884.63;5117561;28;20649;-72
2021/01/19 01:39:14;;;;;;;27.17;18.80;;;;;;;6.42;71.30;100884.13;5117438;28;20207;-71
2021/01/19 01:41:39;;;;;;;21.83;18.20;;;;;;;6.35;70.33;100877.91;5117752;28;20251;-68
2021/01/19 01:44:05;;;;;;;23.73;16.83;;;;;;;6.07;71.42;100877.09;5117386;28;20183;-68
2021/01/19 01:46:31;;;;;;;24.83;18.77;;;;;;;6.06;71.22;100880.53;5118536;28;20206;-69
2021/01/19 01:48:56;;;;;;;28.00;18.80;;;;;;;6.38;70.74;100877.97;5121852;28;20263;-69
2021/01/19 01:51:22;;;;;;;24.50;18.70;;;;;;;5.94;71.81;100884.38;5120599;28;20417;-69
2021/01/19 01:53:49;;;;;;;26.30;18.83;;;;;;;5.91;71.39;100887.75;5120784;28;20706;-70
2021/01/19 01:56:15;;;;;;;25.37;17.50;;;;;;;6.26;70.54;100879.34;5121591;28;20178;-70
2021/01/19 01:58:40;;;;;;;22.07;17.20;;;;;;;6.07;71.31;100877.09;5121200;28;20736;-69
2021/01/19 02:01:05;;;;;;;31.23;19.10;;;;;;;6.36;69.53;100861.53;5121152;28;20172;-69
2021/01/19 02:03:31;;;;;;;24.63;18.67;;;;;;;6.32;70.18;100849.34;5121269;28;20495;-70
2021/01/19 02:05:56;;;;;;;22.53;18.23;;;;;;;6.20;69.17;100851.59;5121186;28;20175;-69
2021/01/19 02:11:56;;;;;;;26.53;18.70;;;;;;;5.63;71.53;100848.13;5120705;28;20213;-69
2021/01/19 02:18:14;;;;;;;19.17;13.67;;;;;;;11.41;66.33;100819.56;5120737;28;20463;-69
2021/01/19 02:21:10;;;;;;;19.77;16.10;;;;;;;7.71;63.33;100826.97;5120184;28;20452;-71
2021/01/19 02:24:00;;;;;;;21.70;17.10;;;;;;;7.30;65.75;100832.03;5120712;28;20409;-68
2021/01/19 02:26:48;;;;;;;21.07;17.53;;;;;;;6.57;67.98;100827.56;5120773;28;20423;-69
2021/01/19 02:29:26;;;;;;;26.27;18.90;;;;;;;6.71;68.22;100822.78;5119849;28;20879;-69
2021/01/19 02:32:00;;;;;;;26.20;20.47;;;;;;;6.98;67.42;100811.41;5119981;28;20417;-69
2021/01/19 02:34:54;;;;;;;29.00;19.20;;;;;;;6.61;68.46;100822.50;5119799;28;20409;-69
2021/01/19 02:40:57;;;;;;;29.03;19.10;;;;;;;7.05;67.86;100813.28;5077827;28;20807;-68
2021/01/19 02:43:25;;;;;;;30.90;21.40;;;;;;;6.71;68.99;100798.56;5061623;28;20431;-69
2021/01/19 02:45:53;;;;;;;28.87;20.90;;;;;;;6.50;69.12;100798.91;5116019;28;20429;-68
2021/01/19 02:48:21;;;;;;;29.63;23.17;;;;;;;6.13;70.27;100809.09;5119482;28;20447;-67
2021/01/19 02:54:08;;;;;;;30.30;21.73;;;;;;;6.69;69.06;100790.78;5120212;28;20420;-69
2021/01/19 02:56:52;;;;;;;30.43;22.57;;;;;;;6.09;70.33;100801.19;5119445;28;20413;-68
2021/01/19 02:59:29;;;;;;;33.13;23.03;;;;;;;6.38;69.85;100789.94;5119970;28;20207;-68
2021/01/19 03:02:07;;;;;;;35.13;23.07;;;;;;;6.19;70.04;100779.94;5120094;28;20412;-68
2021/01/19 03:04:32;;;;;;;31.87;23.53;;;;;;;6.73;68.35;100771.88;5119985;28;21140;-66
2021/01/19 03:07:02;;;;;;;33.70;23.30;;;;;;;6.42;69.49;100764.16;5119895;28;20511;-67
2021/01/19 03:09:28;;;;;;;32.80;23.53;;;;;;;6.78;68.43;100764.25;5119132;28;20173;-68
2021/01/19 03:11:54;;;;;;;30.30;22.73;;;;;;;6.74;68.24;100750.31;5119129;28;20425;-69
2021/01/19 03:14:20;;;;;;;30.73;23.20;;;;;;;7.02;67.56;100747.53;5119493;28;20592;-70
2021/01/19 03:16:46;;;;;;;31.67;24.67;;;;;;;7.15;66.89;100748.72;5119050;28;20421;-69
2021/01/19 03:19:12;;;;;;;30.27;22.93;;;;;;;6.48;69.28;100753.94;5119494;28;20721;-70
2021/01/19 03:21:37;;;;;;;32.03;23.87;;;;;;;7.18;68.24;100744.47;5107195;28;20436;-68
2021/01/19 03:24:03;;;;;;;30.73;22.67;;;;;;;6.76;68.66;100744.31;5106002;28;20184;-68
2021/01/19 03:26:28;;;;;;;35.07;22.23;;;;;;;6.99;69.54;100739.69;5110340;28;20202;-67
2021/01/19 03:28:53;;;;;;;31.10;23.90;;;;;;;7.16;67.02;100733.19;5119822;28;20199;-67
2021/01/19 03:31:19;;;;;;;31.57;23.77;;;;;;;7.27;66.64;100736.03;5119244;28;20167;-69
2021/01/19 03:33:44;;;;;;;32.40;23.30;;;;;;;7.38;66.32;100721.59;5119364;28;20555;-67
2021/01/19 03:36:09;;;;;;;33.23;24.83;;;;;;;7.03;67.95;100718.19;5119712;28;20179;-68
2021/01/19 03:38:35;;;;;;;31.17;23.60;;;;;;;6.45;69.69;100722.78;5119216;28;20648;-68
2021/01/19 03:41:00;;;;;;;27.13;21.70;;;;;;;7.00;69.65;100724.16;5119157;28;20549;-68
2021/01/19 03:43:25;;;;;;;31.60;24.00;;;;;;;6.83;68.24;100715.09;5119571;28;20165;-68
2021/01/19 03:45:51;;;;;;;39.53;22.60;;;;;;;7.21;67.77;100715.13;5119164;28;20176;-69
2021/01/19 03:48:16;;;;;;;34.97;24.13;;;;;;;7.31;67.43;100705.88;5119223;28;20168;-68
2021/01/19 03:50:41;;;;;;;36.83;23.90;;;;;;;6.91;67.58;100693.75;5119235;28;20171;-69
2021/01/19 03:53:06;;;;;;;33.40;24.40;;;;;;;7.13;67.40;100694.25;5119022;28;20183;-68
2021/01/19 03:55:32;;;;;;;34.90;23.03;;;;;;;6.98;66.93;100696.47;5119076;28;20530;-67
2021/01/19 03:57:58;;;;;;;31.77;22.70;;;;;;;6.59;69.33;100690.38;5119236;28;20199;-67
2021/01/19 04:00:23;;;;;;;33.20;23.87;;;;;;;6.99;68.04;100685.25;5117977;28;20221;-66
2021/01/19 04:02:49;;;;;;;31.73;24.37;;;;;;;7.38;67.41;100687.88;5118828;28;20448;-67
2021/01/19 04:05:14;;;;;;;26.40;23.30;;;;;;;7.26;66.83;100685.00;5118920;28;20219;-68
2021/01/19 04:07:40;;;;;;;34.87;25.30;;;;;;;6.93;67.96;100682.50;5118792;28;20168;-68
2021/01/19 04:10:10;;;;;;;28.60;22.60;;;;;;;7.08;67.84;100672.50;5117949;28;20190;-68
2021/01/19 04:12:36;;;;;;;30.03;23.67;;;;;;;7.17;68.47;100667.53;5118940;28;20254;-68
2021/01/19 04:15:02;;;;;;;29.43;23.00;;;;;;;7.01;68.93;100666.31;5118600;28;20763;-68
2021/01/19 04:17:27;;;;;;;28.03;22.27;;;;;;;6.89;69.89;100663.44;5117879;28;20179;-67
2021/01/19 04:19:52;;;;;;;32.70;24.07;;;;;;;6.99;68.24;100644.66;5118748;28;20795;-66
2021/01/19 04:22:18;;;;;;;30.73;24.13;;;;;;;7.32;67.05;100641.06;5118507;28;20175;-67
2021/01/19 04:24:43;;;;;;;28.53;23.00;;;;;;;7.07;68.29;100645.69;5118441;28;20188;-69
2021/01/19 04:27:08;;;;;;;30.00;23.90;;;;;;;6.62;70.08;100648.97;5118720;28;20205;-69
2021/01/19 04:29:33;;;;;;;29.93;22.73;;;;;;;6.55;70.11;100636.72;5118153;28;20175;-68
2021/01/19 04:31:59;;;;;;;36.67;24.33;;;;;;;6.53;71.13;100631.50;5118198;28;20175;-68
2021/01/19 04:34:24;;;;;;;31.80;23.23;;;;;;;6.60;70.87;100629.06;5118576;28;20199;-69
2021/01/19 04:36:49;;;;;;;30.30;22.40;;;;;;;6.56;71.12;100616.03;5118299;28;20274;-69
2021/01/19 04:39:15;;;;;;;33.40;24.90;;;;;;;6.62;71.40;100622.22;5118072;28;20503;-69
2021/01/19 04:41:40;;;;;;;30.50;23.90;;;;;;;6.72;71.22;100612.09;5118286;28;20584;-69
2021/01/19 04:44:06;;;;;;;31.43;23.83;;;;;;;6.93;71.04;100613.44;5117267;28;20246;-68
2021/01/19 04:46:33;;;;;;;32.83;23.80;;;;;;;7.11;69.69;100601.72;5117271;28;20254;-68
2021/01/19 04:49:02;;;;;;;30.03;23.30;;;;;;;6.81;70.33;100602.78;5118298;28;20473;-69
2021/01/19 04:51:32;;;;;;;29.20;22.30;;;;;;;6.77;70.63;100600.97;5117860;28;21082;-68
2021/01/19 04:54:08;;;;;;;26.23;20.47;;;;;;;6.86;71.65;100591.69;5118002;28;20421;-68
2021/01/19 04:56:38;;;;;;;25.60;19.33;;;;;;;6.91;70.78;100590.09;5117908;28;20416;-69
2021/01/19 04:59:10;;;;;;;23.57;18.70;;;;;;;7.18;69.27;100578.53;5117855;28;20473;-68
2021/01/19 05:01:35;;;;;;;26.60;19.17;;;;;;;6.88;69.53;100564.06;5117650;28;20421;-69
2021/01/19 05:04:39;;;;;;;20.80;17.03;;;;;;;6.65;70.88;100554.94;5117744;28;20514;-68
2021/01/19 05:07:29;;;;;;;20.90;17.20;;;;;;;6.74;69.88;100556.00;5115702;28;20270;-69
2021/01/19 05:10:29;;;;;;;22.13;17.40;;;;;;;6.06;71.68;100556.13;5117613;28;20503;-68
2021/01/19 05:13:01;;;;;;;19.30;15.00;;;;;;;6.50;71.38;100542.50;5116974;28;20511;-67
2021/01/19 05:15:28;;;;;;;19.90;15.93;;;;;;;6.43;71.14;100538.00;5117042;28;20418;-68
2021/01/19 05:17:56;;;;;;;17.77;14.73;;;;;;;6.50;69.95;100558.03;5116869;28;20449;-68
2021/01/19 05:20:21;;;;;;;19.90;14.90;;;;;;;6.17;73.06;100538.25;5117554;28;20865;-69
2021/01/19 05:22:47;;;;;;;17.90;14.83;;;;;;;6.51;70.92;100531.31;5120738;28;20401;-69
2021/01/19 05:25:12;;;;;;;18.93;14.63;;;;;;;6.72;71.57;100528.31;5121242;28;20183;-69
2021/01/19 05:27:38;;;;;;;17.03;14.63;;;;;;;6.24;71.84;100515.16;5121991;28;20254;-69
2021/01/19 05:30:04;;;;;;;17.40;14.27;;;;;;;6.68;70.65;100514.41;5122070;28;20441;-68
2021/01/19 05:32:40;;;;;;;17.70;14.30;;;;;;;5.62;72.76;100510.16;5121866;28;20163;-68
2021/01/19 05:35:16;;;;;;;19.60;13.77;;;;;;;6.22;71.30;100496.16;5121698;28;20408;-67
2021/01/19 05:37:43;;;;;;;15.10;12.70;;;;;;;6.16;71.21;100496.00;5121585;28;20459;-68
2021/01/19 05:40:09;;;;;;;16.60;13.70;;;;;;;5.81;72.11;100500.28;5121554;28;20465;-68
2021/01/19 05:42:35;;;;;;;17.90;13.63;;;;;;;6.40;71.40;100481.88;5121460;28;20440;-69
2021/01/19 05:45:10;;;;;;;16.70;12.93;;;;;;;6.14;70.70;100476.09;5121500;28;20424;-69
2021/01/19 05:47:35;;;;;;;15.47;13.00;;;;;;;6.06;72.09;100471.59;5121727;28;20856;-70
2021/01/19 05:50:01;;;;;;;16.60;13.87;;;;;;;6.28;71.26;100471.22;5120439;28;20445;-69
2021/01/19 05:52:31;;;;;;;14.77;12.80;;;;;;;6.32;71.24;100458.38;5121764;28;20255;-69
2021/01/19 05:54:58;;;;;;;14.87;12.90;;;;;;;6.52;70.71;100465.72;5121331;28;20199;-68
2021/01/19 05:57:23;;;;;;;14.67;12.53;;;;;;;5.68;72.15;100449.94;5121348;28;20409;-68
2021/01/19 05:59:54;;;;;;;14.33;12.47;;;;;;;5.86;72.50;100445.22;5121402;28;20418;-69
2021/01/19 06:02:22;;;;;;;15.40;11.97;;;;;;;6.13;72.43;100451.91;5121285;28;20167;-69
2021/01/19 06:04:51;;;;;;;13.53;12.10;;;;;;;6.36;70.39;100439.50;5121030;28;20873;-67
2021/01/19 06:07:20;;;;;;;13.13;11.60;;;;;;;5.86;72.17;100432.28;5121059;28;20640;-68
2021/01/19 06:09:45;;;;;;;14.60;12.17;;;;;;;6.07;71.37;100421.59;5120837;28;20409;-69
2021/01/19 06:12:11;;;;;;;14.87;12.50;;;;;;;5.65;72.59;100447.28;5120525;28;20420;-68
2021/01/19 06:14:37;;;;;;;15.00;12.70;;;;;;;5.69;73.84;100418.94;5120809;28;20168;-68
2021/01/19 06:17:04;;;;;;;13.10;11.77;;;;;;;5.84;72.76;100407.22;5120838;28;20413;-68
2021/01/19 06:19:31;;;;;;;15.23;13.23;;;;;;;5.86;72.71;100406.41;5121087;28;20244;-69
2021/01/19 06:21:57;;;;;;;13.73;12.27;;;;;;;6.09;71.96;100403.53;5120832;27;20835;-68
2021/01/19 06:24:40;;;;;;;12.53;11.17;;;;;;;5.50;73.60;100388.31;5119944;28;20460;-69
2021/01/19 06:27:06;;;;;;;14.00;12.50;;;;;;;5.86;73.22;100387.44;5120679;28;20412;-69
2021/01/19 06:29:32;;;;;;;14.33;12.47;;;;;;;5.92;71.44;100379.81;5119790;28;20722;-69
2021/01/19 06:31:59;;;;;;;14.73;12.60;;;;;;;5.81;71.80;100373.53;5120196;27;20440;-69
2021/01/19 06:34:32;;;;;;;15.53;11.47;;;;;;;5.72;73.85;100376.75;5120588;28;20691;-69
2021/01/19 06:36:58;;;;;;;14.10;12.63;;;;;;;6.17;72.70;100360.56;5120967;28;20496;-69
2021/01/19 06:39:32;;;;;;;13.83;12.40;;;;;;;6.46;70.55;100359.44;5120297;27;20953;-68
2021/01/19 06:42:04;;;;;;;17.00;13.90;;;;;;;5.63;72.03;100361.91;5120224;28;20200;-69
2021/01/19 06:44:35;;;;;;;13.47;12.07;;;;;;;5.99;71.65;100347.22;5120446;27;20440;-68
2021/01/19 06:47:02;;;;;;;13.57;12.13;;;;;;;6.00;71.82;100342.06;5120303;28;20500;-68
2021/01/19 06:49:32;;;;;;;14.83;12.90;;;;;;;6.40;71.07;100326.53;5120161;27;20423;-67
2021/01/19 06:52:03;;;;;;;15.47;13.83;;;;;;;6.13;70.89;100327.69;5120213;28;20421;-69
2021/01/19 06:54:34;;;;;;;13.30;12.00;;;;;;;6.13;71.33;100321.63;5119631;28;20471;-69
2021/01/19 06:57:06;;;;;;;12.73;11.43;;;;;;;5.98;70.86;100324.75;5119429;28;20428;-68
2021/01/19 06:59:41;;;;;;;12.90;11.50;;;;;;;6.14;70.24;100318.19;5119199;28;20540;-70
2021/01/19 07:02:16;;;;;;;13.53;12.23;;;;;;;6.22;71.47;100319.22;5119275;28;20409;-68
2021/01/19 07:04:46;;;;;;;13.87;12.47;;;;;;;5.56;72.10;100313.44;5119707;28;20543;-68
2021/01/19 07:07:39;;;;;;;15.23;11.43;;;;;;;5.93;71.19;100311.72;5119939;28;20417;-68
2021/01/19 07:10:14;;;;;;;12.57;11.30;;;;;;;5.95;71.61;100302.25;5120051;28;20504;-68
2021/01/19 07:13:04;;;;;;;11.57;10.40;;;;;;;5.75;71.66;100301.84;5119693;28;20425;-69
2021/01/19 07:16:06;;;;;;;12.17;10.97;;;;;;;6.05;70.61;100299.06;5119203;28;20500;-68
2021/01/19 07:18:53;;;;;;;12.23;10.90;;;;;;;5.87;71.88;100298.63;5119598;28;20471;-69
2021/01/19 07:21:20;;;;;;;11.30;10.20;;;;;;;6.33;69.56;100284.09;5119634;27;20413;-69
2021/01/19 07:23:45;;;;;;;12.67;11.37;;;;;;;5.72;69.94;100279.38;5119515;28;20417;-69
2021/01/19 07:26:21;;;;;;;12.67;11.07;;;;;;;6.06;71.23;100285.28;5119436;28;21071;-68
2021/01/19 07:28:49;;;;;;;16.57;12.30;;;;;;;6.16;70.18;100280.31;5119622;28;20171;-68
2021/01/19 07:31:15;;;;;;;12.83;11.63;;;;;;;5.66;72.24;100268.00;5119319;28;20694;-69
2021/01/19 07:33:48;;;;;;;10.50;9.50;;;;;;;5.55;71.16;100285.88;5119562;28;20813;-67
2021/01/19 07:36:17;;;;;;;11.67;10.57;;;;;;;5.42;74.11;100263.16;5119255;28;20500;-68
2021/01/19 07:38:43;;;;;;;13.73;11.67;;;;;;;6.02;70.81;100260.19;5118909;28;20461;-68
2021/01/19 07:41:09;;;;;;;12.30;11.10;;;;;;;5.96;70.01;100252.25;5118795;28;20463;-68
2021/01/19 07:43:35;;;;;;;12.10;10.90;;;;;;;5.90;71.48;100259.91;5118528;28;20176;-67
2021/01/19 07:46:01;;;;;;;11.13;10.07;;;;;;;5.50;72.32;100246.09;5118267;28;20464;-68
2021/01/19 07:48:30;;;;;;;11.27;9.57;;;;;;;6.07;71.76;100250.81;5119136;28;20421;-68
2021/01/19 07:50:56;;;;;;;12.07;10.77;;;;;;;6.13;70.99;100241.41;5118979;27;20167;-68
2021/01/19 07:53:21;;;;;;;11.57;10.37;;;;;;;6.13;70.75;100236.22;5119421;28;20406;-69
2021/01/19 07:55:48;;;;;;;10.50;9.40;;;;;;;5.28;72.25;100230.13;5118992;28;20494;-68
2021/01/19 07:58:23;;;;;;;11.97;10.03;;;;;;;5.97;71.02;100225.53;5118916;28;20218;-69
2021/01/19 08:00:57;;;;;;;12.27;10.97;;;;;;;6.29;69.97;100217.56;5118880;28;20439;-69
2021/01/19 08:03:29;;;;;;;11.07;9.97;;;;;;;5.78;71.62;100218.22;5118819;28;20457;-69
2021/01/19 08:05:55;;;;;;;9.63;8.63;;;;;;;6.14;71.05;100209.50;5118893;28;20433;-69
2021/01/19 08:08:20;;;;;;;10.30;9.30;;;;;;;5.90;70.54;100203.84;5118876;28;20417;-69
2021/01/19 08:10:56;;;;;;;9.37;8.50;;;;;;;5.85;70.27;100199.44;5118937;28;20183;-69
2021/01/19 08:13:21;;;;;;;11.27;8.70;;;;;;;5.74;71.94;100189.72;5118755;28;20223;-68
2021/01/19 08:16:04;;;;;;;10.43;9.27;;;;;;;6.07;70.14;100191.28;5118657;28;20413;-68
2021/01/19 08:18:50;;;;;;;10.13;9.13;;;;;;;6.19;71.27;100180.28;5117823;28;20199;-68
2021/01/19 08:21:15;;;;;;;10.27;8.70;;;;;;;6.04;69.92;100178.28;5117176;28;20473;-69
2021/01/19 08:23:41;;;;;;;8.90;8.10;;;;;;;5.80;70.69;100190.69;5118463;28;20462;-69
2021/01/19 08:26:08;;;;;;;11.33;9.83;;;;;;;5.95;70.88;100177.19;5118532;28;20254;-69
2021/01/19 08:28:35;;;;;;;7.30;6.60;;;;;;;5.76;70.65;100175.97;5118643;28;20666;-69
2021/01/19 08:31:00;;;;;;;7.90;7.20;;;;;;;6.09;70.26;100174.91;5117533;28;20440;-68
2021/01/19 08:33:26;;;;;;;8.73;7.80;;;;;;;5.77;71.54;100157.88;5118379;28;20726;-68
2021/01/19 08:35:53;;;;;;;8.43;7.57;;;;;;;5.75;72.71;100164.75;5118583;28;20548;-69
2021/01/19 08:38:23;;;;;;;7.67;6.87;;;;;;;5.77;72.37;100160.47;5118154;28;20203;-69
2021/01/19 08:40:49;;;;;;;8.30;7.43;;;;;;;6.09;70.85;100152.50;5118013;28;20517;-69
2021/01/19 08:43:14;;;;;;;6.47;5.87;;;;;;;5.37;72.14;100152.78;5118446;28;20409;-71
2021/01/19 08:45:39;;;;;;;7.80;6.53;;;;;;;5.85;70.79;100139.94;5118246;28;20472;-69
2021/01/19 08:48:06;;;;;;;8.47;6.27;;;;;;;6.13;70.25;100137.88;5117955;28;20164;-68
2021/01/19 08:50:35;;;;;;;7.30;6.60;;;;;;;5.79;71.00;100130.34;5117485;28;20168;-68
2021/01/19 08:53:11;;;;;;;6.30;5.70;;;;;;;5.88;71.58;100130.50;5118073;28;20469;-68
2021/01/19 08:55:37;;;;;;;7.07;5.20;;;;;;;6.06;71.09;100121.38;5117847;28;20417;-68
2021/01/19 08:58:02;;;;;;;6.53;5.90;;;;;;;5.88;70.88;100111.53;5117906;28;20502;-70
2021/01/19 09:00:35;;;;;;;5.37;4.87;;;;;;;5.83;70.74;100111.47;5117873;28;20218;-68
2021/01/19 09:03:10;;;;;;;6.23;5.63;;;;;;;5.84;71.02;100108.00;5117315;28;20167;-68
2021/01/19 09:05:35;;;;;;;6.00;5.40;;;;;;;5.99;70.52;100097.09;5117441;28;20809;-69
2021/01/19 09:08:14;;;;;;;4.90;4.50;;;;;;;5.48;71.63;100103.00;5117941;28;20417;-69
2021/01/19 09:10:40;;;;;;;4.93;4.50;;;;;;;5.98;71.09;100097.06;5117863;28;20196;-68
2021/01/19 09:13:05;;;;;;;4.53;4.13;;;;;;;5.89;70.42;100100.34;5117923;28;20519;-69
2021/01/19 09:15:37;;;;;;;5.00;4.13;;;;;;;5.66;71.08;100093.03;5117655;28;20429;-70
2021/01/19 09:18:03;;;;;;;4.70;4.30;;;;;;;5.85;70.66;100093.38;5117608;28;20207;-69
2021/01/19 09:20:29;;;;;;;4.73;4.23;;;;;;;6.16;70.42;100086.19;5117234;28;20492;-68
2021/01/19 09:23:06;;;;;;;4.57;4.17;;;;;;;6.01;69.72;100079.03;5117639;28;20168;-69
2021/01/19 09:25:31;;;;;;;3.97;3.67;;;;;;;5.62;70.60;100070.53;5117883;28;20413;-70
2021/01/19 09:28:05;;;;;;;4.53;4.13;;;;;;;6.03;70.04;100064.41;5118124;28;20417;-69
2021/01/19 09:30:34;;;;;;;4.17;3.87;;;;;;;6.16;69.40;100058.59;5118027;28;20167;-69
2021/01/19 09:33:04;;;;;;;4.97;4.27;;;;;;;5.97;70.98;100054.78;5117988;27;20859;-70
2021/01/19 09:35:30;;;;;;;4.73;3.80;;;;;;;5.63;70.66;100063.63;5117838;28;20794;-70
2021/01/19 09:37:55;;;;;;;4.50;4.10;;;;;;;5.12;73.57;100062.66;5117238;28;20468;-72
2021/01/19 09:40:37;;;;;;;6.00;4.27;;;;;;;5.79;71.33;100051.88;5117457;28;20176;-69
2021/01/19 09:43:07;;;;;;;4.10;3.70;;;;;;;6.22;70.17;100039.69;5117815;28;20160;-69
2021/01/19 09:45:34;;;;;;;4.87;4.17;;;;;;;5.93;70.92;100037.47;5116916;28;20481;-69
2021/01/19 09:48:01;;;;;;;5.90;4.50;;;;;;;5.73;71.70;100029.34;5117041;28;20429;-69
2021/01/19 09:50:27;;;;;;;4.77;4.37;;;;;;;6.25;70.26;100026.78;5117742;28;20405;-68
2021/01/19 09:52:52;;;;;;;4.37;3.97;;;;;;;6.01;70.52;100022.13;5117343;28;20512;-68
2021/01/19 09:55:18;;;;;;;4.30;3.90;;;;;;;5.49;72.13;100014.25;5116451;28;20163;-69
2021/01/19 09:57:43;;;;;;;4.60;4.20;;;;;;;5.94;71.79;100018.53;5117758;28;20479;-68
2021/01/19 10:00:10;;;;;;;4.27;3.90;;;;;;;6.00;71.90;100007.44;5116969;28;20174;-69
2021/01/19 10:02:38;;;;;;;4.80;4.27;;;;;;;5.52;72.69;100011.72;5106691;28;20236;-68
2021/01/19 10:05:08;;;;;;;4.73;3.93;;;;;;;5.50;73.76;99997.91;5102080;28;20519;-69
2021/01/19 10:07:34;;;;;;;4.10;3.80;;;;;;;5.60;72.37;99994.63;5098035;28;20422;-70
2021/01/19 10:10:12;;;;;;;4.27;3.87;;;;;;;6.21;71.30;99999.13;5100936;28;20726;-69
2021/01/19 10:12:39;;;;;;;4.57;4.03;;;;;;;5.40;73.66;99991.72;5100706;28;20414;-69
2021/01/19 10:15:09;;;;;;;5.27;4.27;;;;;;;6.07;71.92;99979.09;5100621;28;20440;-69
2021/01/19 10:17:35;;;;;;;5.43;4.10;;;;;;;5.97;73.11;99969.41;5100578;28;20459;-70
2021/01/19 10:20:07;;;;;;;5.10;4.27;;;;;;;6.21;71.76;99960.28;5100384;28;20421;-69
2021/01/19 10:22:35;;;;;;;5.63;4.13;;;;;;;6.04;72.33;99957.47;5100521;28;20425;-69
2021/01/19 10:25:01;;;;;;;3.93;3.50;;;;;;;6.23;71.25;99949.13;5099663;28;20417;-69
2021/01/19 10:27:28;;;;;;;4.20;3.80;;;;;;;6.27;71.45;99937.09;5083002;28;20743;-69
2021/01/19 10:29:53;;;;;;;3.93;3.63;;;;;;;6.40;71.58;99935.56;5100017;28;20266;-68
2021/01/19 10:32:19;;;;;;;4.33;3.93;;;;;;;6.01;71.87;99922.06;5099421;28;20418;-69
2021/01/19 10:34:49;;;;;;;6.00;3.93;;;;;;;6.12;72.38;99921.38;5100587;28;20168;-69
2021/01/19 10:37:15;;;;;;;4.40;4.00;;;;;;;5.88;71.82;99917.53;5100269;28;20183;-68
2021/01/19 10:39:53;;;;;;;4.00;3.70;;;;;;;6.02;71.23;99910.88;5100013;28;20514;-68
2021/01/19 10:42:30;;;;;;;4.73;4.17;;;;;;;6.22;71.54;99902.50;5099826;28;20438;-69
2021/01/19 10:44:57;;;;;;;4.23;3.83;;;;;;;6.46;70.67;99896.78;5099110;28;20692;-69
2021/01/19 10:47:22;;;;;;;3.90;3.60;;;;;;;5.16;73.45;99897.38;5099896;28;20758;-69
2021/01/19 10:49:48;;;;;;;4.43;4.03;;;;;;;6.39;71.11;99884.63;5099921;28;20508;-69
2021/01/19 10:52:13;;;;;;;4.47;3.80;;;;;;;6.36;70.46;99888.06;5100160;28;20211;-68
2021/01/19 10:54:39;;;;;;;4.77;4.30;;;;;;;6.42;71.74;99878.63;5099098;28;20416;-70
2021/01/19 10:57:07;;;;;;;10.53;4.17;;;;;;;6.55;70.04;99883.13;5114626;28;20191;-70
2021/01/19 10:59:33;;;;;;;4.77;4.07;;;;;;;6.66;71.06;99872.88;5120104;28;20195;-72
2021/01/19 11:01:58;;;;;;;5.30;4.50;;;;;;;6.83;70.19;99871.34;5120161;28;20388;-69
2021/01/19 11:04:24;;;;;;;6.20;4.47;;;;;;;6.62;70.23;99864.19;5119677;28;20469;-70
2021/01/19 11:06:49;;;;;;;4.70;4.20;;;;;;;6.16;72.04;99861.03;5119704;28;20175;-70
2021/01/19 11:09:15;;;;;;;5.03;4.23;;;;;;;6.55;71.15;99871.03;5119245;28;20186;-70
2021/01/19 11:11:40;;;;;;;4.43;4.10;;;;;;;6.73;70.47;99859.13;5119825;28;20203;-71
2021/01/19 11:14:07;;;;;;;4.90;3.63;;;;;;;6.81;70.75;99859.22;5119223;28;20571;-70
2021/01/19 11:16:38;;;;;;;5.00;4.60;;;;;;;6.93;70.01;99854.16;5119611;28;20178;-70
2021/01/19 11:19:14;;;;;;;5.87;4.60;;;;;;;7.00;70.39;99848.19;5119535;28;20475;-71
2021/01/19 11:21:41;;;;;;;4.83;4.40;;;;;;;6.38;71.80;99846.66;5119512;28;20421;-71
2021/01/19 11:24:07;;;;;;;4.80;4.40;;;;;;;6.53;72.08;99841.63;5119555;28;20424;-69
2021/01/19 11:26:35;;;;;;;5.40;5.00;;;;;;;6.66;72.02;99836.63;5119856;28;20412;-70
2021/01/19 11:29:00;;;;;;;7.40;4.43;;;;;;;6.42;72.87;99832.88;5119415;28;20421;-70
2021/01/19 11:31:27;;;;;;;6.10;5.10;;;;;;;6.92;71.43;99821.34;5119452;28;20425;-69
2021/01/19 11:33:53;;;;;;;5.40;5.00;;;;;;;7.34;70.26;99822.56;5119811;28;20266;-70
2021/01/19 11:36:27;;;;;;;5.80;5.30;;;;;;;6.83;71.45;99822.13;5119826;28;20894;-70
2021/01/19 11:38:54;;;;;;;6.10;5.50;;;;;;;6.72;72.27;99829.78;5119329;28;20472;-70
2021/01/19 11:41:21;;;;;;;6.23;5.63;;;;;;;6.93;73.30;99804.94;5118431;28;20471;-71
2021/01/19 11:43:46;;;;;;;6.30;5.70;;;;;;;7.27;71.34;99800.03;5114820;28;20448;-69
2021/01/19 11:46:16;;;;;;;6.37;5.77;;;;;;;6.69;73.29;99790.88;5108005;28;20422;-69
2021/01/19 11:48:41;;;;;;;7.20;6.57;;;;;;;7.24;71.47;99787.06;5098800;28;20172;-70
2021/01/19 11:51:07;;;;;;;6.13;5.53;;;;;;;7.41;70.62;99793.25;5098689;28;20445;-70
2021/01/19 11:53:32;;;;;;;6.87;6.17;;;;;;;7.53;69.67;99789.00;5098915;28;20431;-70
2021/01/19 11:55:59;;;;;;;6.60;6.03;;;;;;;7.23;70.20;99781.00;5097733;28;20592;-69
2021/01/19 11:58:24;;;;;;;7.47;6.77;;;;;;;7.32;70.26;99780.22;5098397;28;20219;-68
2021/01/19 12:00:49;;;;;;;7.70;7.00;;;;;;;7.17;71.84;99780.97;5098731;28;20406;-70
2021/01/19 12:03:18;;;;;;;6.80;6.20;;;;;;;6.96;72.67;99781.63;5098363;28;20234;-69